sensor_id;sensor_type;location;lat;lon;timestamp;P1;durP1;ratioP1;P2;durP2;ratioP2
60426;SDS011;46274;47.168;27.604;2023-02-15T00:01:43;21.57;;;8.70;;
60426;SDS011;46274;47.168;27.604;2023-02-15T00:07:45;20.40;;;9.40;;
60426;SDS011;46274;47.168;27.604;2023-02-15T00:13:47;17.80;;;8.53;;
60426;SDS011;46274;47.168;27.604;2023-02-15T00:19:50;27.40;;;10.30;;
60426;SDS011;46274;47.168;27.604;2023-02-15T00:25:55;23.03;;;9.57;;
60426;SDS011;46274;47.168;27.604;2023-02-15T00:32:15;24.53;;;9.47;;
60426;SDS011;46274;47.168;27.604;2023-02-15T00:38:17;25.57;;;10.10;;
60426;SDS011;46274;47.168;27.604;2023-02-15T00:44:20;25.53;;;9.60;;
60426;SDS011;46274;47.168;27.604;2023-02-15T00:50:23;23.80;;;10.37;;
60426;SDS011;46274;47.168;27.604;2023-02-15T00:56:26;25.83;;;9.67;;
60426;SDS011;46274;47.168;27.604;2023-02-15T01:02:37;22.37;;;11.20;;
60426;SDS011;46274;47.168;27.604;2023-02-15T01:08:39;27.73;;;10.93;;
60426;SDS011;46274;47.168;27.604;2023-02-15T01:14:55;29.90;;;10.83;;
60426;SDS011;46274;47.168;27.604;2023-02-15T01:20:59;23.00;;;10.53;;
60426;SDS011;46274;47.168;27.604;2023-02-15T01:27:01;23.20;;;10.77;;
60426;SDS011;46274;47.168;27.604;2023-02-15T01:33:04;20.83;;;10.03;;
60426;SDS011;46274;47.168;27.604;2023-02-15T01:39:06;23.10;;;9.37;;
60426;SDS011;46274;47.168;27.604;2023-02-15T01:45:20;26.50;;;11.17;;
60426;SDS011;46274;47.168;27.604;2023-02-15T01:51:26;26.80;;;10.50;;
60426;SDS011;46274;47.168;27.604;2023-02-15T01:57:30;23.37;;;10.57;;
60426;SDS011;46274;47.168;27.604;2023-02-15T02:10:12;26.57;;;10.33;;
60426;SDS011;46274;47.168;27.604;2023-02-15T02:42:05;22.20;;;10.63;;
60426;SDS011;46274;47.168;27.604;2023-02-15T02:48:12;25.33;;;10.37;;
60426;SDS011;46274;47.168;27.604;2023-02-15T02:54:18;27.27;;;9.67;;
60426;SDS011;46274;47.168;27.604;2023-02-15T03:00:21;28.60;;;10.97;;
60426;SDS011;46274;47.168;27.604;2023-02-15T03:06:37;28.50;;;11.43;;
60426;SDS011;46274;47.168;27.604;2023-02-15T03:12:41;22.37;;;10.23;;
60426;SDS011;46274;47.168;27.604;2023-02-15T03:18:47;21.77;;;10.03;;
60426;SDS011;46274;47.168;27.604;2023-02-15T03:25:04;25.63;;;10.53;;
60426;SDS011;46274;47.168;27.604;2023-02-15T03:31:16;20.27;;;10.00;;
60426;SDS011;46274;47.168;27.604;2023-02-15T03:43:47;23.20;;;9.77;;
60426;SDS011;46274;47.168;27.604;2023-02-15T03:49:57;25.20;;;10.00;;
60426;SDS011;46274;47.168;27.604;2023-02-15T03:56:03;22.17;;;10.67;;
60426;SDS011;46274;47.168;27.604;2023-02-15T04:02:20;21.17;;;9.80;;
60426;SDS011;46274;47.168;27.604;2023-02-15T04:08:37;27.07;;;10.00;;
60426;SDS011;46274;47.168;27.604;2023-02-15T04:14:58;22.07;;;9.90;;
60426;SDS011;46274;47.168;27.604;2023-02-15T04:21:19;24.87;;;11.50;;
60426;SDS011;46274;47.168;27.604;2023-02-15T04:27:47;28.23;;;10.20;;
60426;SDS011;46274;47.168;27.604;2023-02-15T04:33:50;27.37;;;11.93;;
60426;SDS011;46274;47.168;27.604;2023-02-15T04:39:53;24.33;;;10.40;;
60426;SDS011;46274;47.168;27.604;2023-02-15T04:45:55;26.53;;;10.10;;
60426;SDS011;46274;47.168;27.604;2023-02-15T04:51:57;26.37;;;9.93;;
60426;SDS011;46274;47.168;27.604;2023-02-15T04:58:00;24.00;;;10.13;;
60426;SDS011;46274;47.168;27.604;2023-02-15T05:04:03;28.90;;;11.70;;
60426;SDS011;46274;47.168;27.604;2023-02-15T05:10:05;27.43;;;11.23;;
60426;SDS011;46274;47.168;27.604;2023-02-15T05:16:09;22.67;;;10.13;;
60426;SDS011;46274;47.168;27.604;2023-02-15T05:22:11;30.00;;;11.13;;
60426;SDS011;46274;47.168;27.604;2023-02-15T05:28:13;26.00;;;10.03;;
60426;SDS011;46274;47.168;27.604;2023-02-15T05:34:22;22.57;;;10.53;;
60426;SDS011;46274;47.168;27.604;2023-02-15T05:40:25;27.93;;;11.63;;
60426;SDS011;46274;47.168;27.604;2023-02-15T05:46:34;28.40;;;10.63;;
60426;SDS011;46274;47.168;27.604;2023-02-15T05:52:37;24.90;;;10.13;;
60426;SDS011;46274;47.168;27.604;2023-02-15T05:58:41;24.77;;;10.30;;
60426;SDS011;46274;47.168;27.604;2023-02-15T06:04:43;24.73;;;10.03;;
60426;SDS011;46274;47.168;27.604;2023-02-15T06:10:46;23.20;;;10.07;;
60426;SDS011;46274;47.168;27.604;2023-02-15T06:16:48;23.80;;;10.87;;
60426;SDS011;46274;47.168;27.604;2023-02-15T06:22:51;20.43;;;9.77;;
60426;SDS011;46274;47.168;27.604;2023-02-15T06:28:53;26.93;;;11.07;;
60426;SDS011;46274;47.168;27.604;2023-02-15T06:34:55;30.83;;;11.73;;
60426;SDS011;46274;47.168;27.604;2023-02-15T06:41:00;30.80;;;11.10;;
60426;SDS011;46274;47.168;27.604;2023-02-15T06:47:02;26.00;;;11.50;;
60426;SDS011;46274;47.168;27.604;2023-02-15T06:53:05;29.43;;;11.33;;
60426;SDS011;46274;47.168;27.604;2023-02-15T06:59:07;23.93;;;10.10;;
60426;SDS011;46274;47.168;27.604;2023-02-15T07:05:09;25.10;;;10.73;;
60426;SDS011;46274;47.168;27.604;2023-02-15T07:11:11;26.57;;;10.70;;
60426;SDS011;46274;47.168;27.604;2023-02-15T07:17:32;26.37;;;9.97;;
60426;SDS011;46274;47.168;27.604;2023-02-15T07:23:37;21.47;;;9.97;;
60426;SDS011;46274;47.168;27.604;2023-02-15T07:29:46;26.17;;;10.10;;
60426;SDS011;46274;47.168;27.604;2023-02-15T07:36:04;23.03;;;9.77;;
60426;SDS011;46274;47.168;27.604;2023-02-15T07:42:18;20.27;;;8.93;;
60426;SDS011;46274;47.168;27.604;2023-02-15T07:48:22;26.63;;;9.37;;
60426;SDS011;46274;47.168;27.604;2023-02-15T07:54:38;22.00;;;9.57;;
60426;SDS011;46274;47.168;27.604;2023-02-15T08:00:41;28.57;;;9.83;;
60426;SDS011;46274;47.168;27.604;2023-02-15T08:07:08;24.83;;;8.90;;
60426;SDS011;46274;47.168;27.604;2023-02-15T08:13:17;25.83;;;8.87;;
60426;SDS011;46274;47.168;27.604;2023-02-15T08:19:23;24.13;;;9.73;;
60426;SDS011;46274;47.168;27.604;2023-02-15T08:25:34;21.27;;;8.77;;
60426;SDS011;46274;47.168;27.604;2023-02-15T08:31:44;25.07;;;8.90;;
60426;SDS011;46274;47.168;27.604;2023-02-15T08:38:16;17.73;;;8.17;;
60426;SDS011;46274;47.168;27.604;2023-02-15T08:44:28;17.90;;;8.27;;
60426;SDS011;46274;47.168;27.604;2023-02-15T08:50:38;17.80;;;7.90;;
60426;SDS011;46274;47.168;27.604;2023-02-15T08:56:44;18.40;;;8.43;;
60426;SDS011;46274;47.168;27.604;2023-02-15T09:02:48;19.43;;;8.20;;
60426;SDS011;46274;47.168;27.604;2023-02-15T09:09:00;16.13;;;6.10;;
60426;SDS011;46274;47.168;27.604;2023-02-15T09:15:04;13.67;;;5.90;;
60426;SDS011;46274;47.168;27.604;2023-02-15T09:21:13;14.90;;;6.80;;
60426;SDS011;46274;47.168;27.604;2023-02-15T09:27:32;12.47;;;5.70;;
60426;SDS011;46274;47.168;27.604;2023-02-15T09:33:35;15.83;;;6.53;;
60426;SDS011;46274;47.168;27.604;2023-02-15T09:39:46;13.70;;;5.93;;
60426;SDS011;46274;47.168;27.604;2023-02-15T09:46:04;14.43;;;6.23;;
60426;SDS011;46274;47.168;27.604;2023-02-15T09:59:10;18.47;;;6.07;;
60426;SDS011;46274;47.168;27.604;2023-02-15T10:06:09;15.77;;;7.40;;
60426;SDS011;46274;47.168;27.604;2023-02-15T10:25:59;19.57;;;7.57;;
60426;SDS011;46274;47.168;27.604;2023-02-15T10:45:36;14.67;;;7.07;;
60426;SDS011;46274;47.168;27.604;2023-02-15T10:51:54;17.60;;;6.43;;
60426;SDS011;46274;47.168;27.604;2023-02-15T10:58:03;15.27;;;6.17;;
60426;SDS011;46274;47.168;27.604;2023-02-15T11:10:59;18.20;;;6.87;;
60426;SDS011;46274;47.168;27.604;2023-02-15T11:17:22;13.57;;;6.10;;
60426;SDS011;46274;47.168;27.604;2023-02-15T11:23:36;20.63;;;7.43;;
60426;SDS011;46274;47.168;27.604;2023-02-15T11:30:27;15.70;;;6.07;;
60426;SDS011;46274;47.168;27.604;2023-02-15T11:36:46;15.10;;;5.47;;
60426;SDS011;46274;47.168;27.604;2023-02-15T11:49:24;16.60;;;6.73;;
60426;SDS011;46274;47.168;27.604;2023-02-15T11:55:34;18.57;;;7.40;;
60426;SDS011;46274;47.168;27.604;2023-02-15T12:01:46;13.80;;;6.10;;
60426;SDS011;46274;47.168;27.604;2023-02-15T12:14:27;11.37;;;5.33;;
60426;SDS011;46274;47.168;27.604;2023-02-15T12:20:48;10.77;;;5.30;;
60426;SDS011;46274;47.168;27.604;2023-02-15T12:33:27;14.43;;;5.70;;
60426;SDS011;46274;47.168;27.604;2023-02-15T12:39:51;13.23;;;5.90;;
60426;SDS011;46274;47.168;27.604;2023-02-15T12:46:22;14.10;;;6.47;;
60426;SDS011;46274;47.168;27.604;2023-02-15T12:52:40;15.87;;;7.43;;
60426;SDS011;46274;47.168;27.604;2023-02-15T12:59:03;15.80;;;7.30;;
60426;SDS011;46274;47.168;27.604;2023-02-15T13:05:33;15.27;;;5.77;;
60426;SDS011;46274;47.168;27.604;2023-02-15T13:11:41;13.50;;;6.07;;
60426;SDS011;46274;47.168;27.604;2023-02-15T13:17:51;14.10;;;6.10;;
60426;SDS011;46274;47.168;27.604;2023-02-15T13:23:58;11.97;;;5.83;;
60426;SDS011;46274;47.168;27.604;2023-02-15T13:30:20;14.10;;;6.17;;
60426;SDS011;46274;47.168;27.604;2023-02-15T13:36:41;11.27;;;5.50;;
60426;SDS011;46274;47.168;27.604;2023-02-15T14:01:34;14.50;;;5.57;;
60426;SDS011;46274;47.168;27.604;2023-02-15T14:20:27;10.93;;;5.63;;
60426;SDS011;46274;47.168;27.604;2023-02-15T14:33:07;13.07;;;5.43;;
60426;SDS011;46274;47.168;27.604;2023-02-15T14:46:10;12.90;;;6.10;;
60426;SDS011;46274;47.168;27.604;2023-02-15T14:52:21;13.30;;;5.60;;
60426;SDS011;46274;47.168;27.604;2023-02-15T14:58:23;13.37;;;5.93;;
60426;SDS011;46274;47.168;27.604;2023-02-15T15:04:27;16.37;;;6.13;;
60426;SDS011;46274;47.168;27.604;2023-02-15T15:10:45;19.30;;;7.10;;
60426;SDS011;46274;47.168;27.604;2023-02-15T15:16:49;19.77;;;7.40;;
60426;SDS011;46274;47.168;27.604;2023-02-15T15:29:44;18.10;;;7.20;;
60426;SDS011;46274;47.168;27.604;2023-02-15T15:36:08;16.07;;;6.87;;
60426;SDS011;46274;47.168;27.604;2023-02-15T15:49:02;19.73;;;6.70;;
60426;SDS011;46274;47.168;27.604;2023-02-15T15:55:14;18.00;;;6.70;;
60426;SDS011;46274;47.168;27.604;2023-02-15T16:01:23;18.93;;;6.73;;
60426;SDS011;46274;47.168;27.604;2023-02-15T16:07:31;18.53;;;6.87;;
60426;SDS011;46274;47.168;27.604;2023-02-15T16:13:33;16.43;;;7.90;;
60426;SDS011;46274;47.168;27.604;2023-02-15T16:19:38;17.30;;;6.40;;
60426;SDS011;46274;47.168;27.604;2023-02-15T16:32:01;18.37;;;6.50;;
60426;SDS011;46274;47.168;27.604;2023-02-15T16:38:30;15.47;;;6.67;;
60426;SDS011;46274;47.168;27.604;2023-02-15T16:44:52;23.73;;;9.00;;
60426;SDS011;46274;47.168;27.604;2023-02-15T16:51:00;18.83;;;8.67;;
60426;SDS011;46274;47.168;27.604;2023-02-15T16:57:13;18.97;;;8.83;;
60426;SDS011;46274;47.168;27.604;2023-02-15T17:03:21;19.33;;;8.57;;
60426;SDS011;46274;47.168;27.604;2023-02-15T17:09:25;17.53;;;7.63;;
60426;SDS011;46274;47.168;27.604;2023-02-15T17:22:14;24.07;;;8.97;;
60426;SDS011;46274;47.168;27.604;2023-02-15T17:28:25;25.73;;;10.27;;
60426;SDS011;46274;47.168;27.604;2023-02-15T17:40:47;24.90;;;10.40;;
60426;SDS011;46274;47.168;27.604;2023-02-15T17:46:51;24.03;;;11.17;;
60426;SDS011;46274;47.168;27.604;2023-02-15T17:53:01;21.53;;;9.20;;
60426;SDS011;46274;47.168;27.604;2023-02-15T17:59:17;20.47;;;9.53;;
60426;SDS011;46274;47.168;27.604;2023-02-15T18:05:22;27.73;;;11.20;;
60426;SDS011;46274;47.168;27.604;2023-02-15T18:11:43;24.57;;;11.37;;
60426;SDS011;46274;47.168;27.604;2023-02-15T18:17:50;30.10;;;13.77;;
60426;SDS011;46274;47.168;27.604;2023-02-15T18:23:55;49.20;;;19.53;;
60426;SDS011;46274;47.168;27.604;2023-02-15T18:29:58;35.33;;;16.70;;
60426;SDS011;46274;47.168;27.604;2023-02-15T18:36:04;34.50;;;15.37;;
60426;SDS011;46274;47.168;27.604;2023-02-15T18:42:17;25.33;;;11.97;;
60426;SDS011;46274;47.168;27.604;2023-02-15T18:48:24;32.03;;;13.43;;
60426;SDS011;46274;47.168;27.604;2023-02-15T18:54:28;28.80;;;11.40;;
60426;SDS011;46274;47.168;27.604;2023-02-15T19:00:32;27.83;;;11.63;;
60426;SDS011;46274;47.168;27.604;2023-02-15T19:06:37;29.93;;;11.40;;
60426;SDS011;46274;47.168;27.604;2023-02-15T19:12:50;29.50;;;12.17;;
60426;SDS011;46274;47.168;27.604;2023-02-15T19:18:53;34.03;;;13.23;;
60426;SDS011;46274;47.168;27.604;2023-02-15T19:24:57;26.73;;;12.20;;
60426;SDS011;46274;47.168;27.604;2023-02-15T19:31:08;30.83;;;13.03;;
60426;SDS011;46274;47.168;27.604;2023-02-15T19:37:23;29.43;;;13.40;;
60426;SDS011;46274;47.168;27.604;2023-02-15T19:43:31;31.40;;;12.10;;
60426;SDS011;46274;47.168;27.604;2023-02-15T19:49:35;24.90;;;10.83;;
60426;SDS011;46274;47.168;27.604;2023-02-15T19:55:37;19.23;;;10.50;;
60426;SDS011;46274;47.168;27.604;2023-02-15T20:01:49;27.93;;;12.17;;
60426;SDS011;46274;47.168;27.604;2023-02-15T20:07:56;27.67;;;12.77;;
60426;SDS011;46274;47.168;27.604;2023-02-15T20:14:15;50.77;;;19.93;;
60426;SDS011;46274;47.168;27.604;2023-02-15T20:20:33;43.23;;;19.47;;
60426;SDS011;46274;47.168;27.604;2023-02-15T20:26:48;29.77;;;13.47;;
60426;SDS011;46274;47.168;27.604;2023-02-15T20:33:12;39.73;;;18.40;;
60426;SDS011;46274;47.168;27.604;2023-02-15T20:39:18;37.03;;;16.00;;
60426;SDS011;46274;47.168;27.604;2023-02-15T20:45:29;51.17;;;20.90;;
60426;SDS011;46274;47.168;27.604;2023-02-15T20:51:58;33.93;;;13.90;;
60426;SDS011;46274;47.168;27.604;2023-02-15T20:58:07;47.03;;;18.63;;
60426;SDS011;46274;47.168;27.604;2023-02-15T21:04:30;48.80;;;22.80;;
60426;SDS011;46274;47.168;27.604;2023-02-15T21:10:42;44.03;;;19.27;;
60426;SDS011;46274;47.168;27.604;2023-02-15T21:17:02;44.10;;;17.70;;
60426;SDS011;46274;47.168;27.604;2023-02-15T21:23:19;40.57;;;17.83;;
60426;SDS011;46274;47.168;27.604;2023-02-15T21:29:27;44.70;;;19.30;;
60426;SDS011;46274;47.168;27.604;2023-02-15T21:35:30;49.67;;;19.33;;
60426;SDS011;46274;47.168;27.604;2023-02-15T21:41:49;52.40;;;21.00;;
60426;SDS011;46274;47.168;27.604;2023-02-15T21:48:11;64.63;;;23.90;;
60426;SDS011;46274;47.168;27.604;2023-02-15T21:54:27;63.03;;;24.67;;
60426;SDS011;46274;47.168;27.604;2023-02-15T22:00:30;57.73;;;21.97;;
60426;SDS011;46274;47.168;27.604;2023-02-15T22:06:35;57.30;;;19.27;;
60426;SDS011;46274;47.168;27.604;2023-02-15T22:12:54;42.63;;;16.23;;
60426;SDS011;46274;47.168;27.604;2023-02-15T22:19:04;53.37;;;20.77;;
60426;SDS011;46274;47.168;27.604;2023-02-15T22:25:18;44.33;;;17.17;;
60426;SDS011;46274;47.168;27.604;2023-02-15T22:31:25;49.70;;;19.63;;
60426;SDS011;46274;47.168;27.604;2023-02-15T22:37:30;41.77;;;17.33;;
60426;SDS011;46274;47.168;27.604;2023-02-15T22:43:37;42.73;;;17.77;;
60426;SDS011;46274;47.168;27.604;2023-02-15T22:49:51;60.53;;;21.60;;
60426;SDS011;46274;47.168;27.604;2023-02-15T22:55:58;44.37;;;17.37;;
60426;SDS011;46274;47.168;27.604;2023-02-15T23:02:17;40.77;;;17.77;;
60426;SDS011;46274;47.168;27.604;2023-02-15T23:08:20;49.60;;;18.00;;
60426;SDS011;46274;47.168;27.604;2023-02-15T23:14:25;45.90;;;17.50;;
60426;SDS011;46274;47.168;27.604;2023-02-15T23:20:36;51.03;;;19.90;;
60426;SDS011;46274;47.168;27.604;2023-02-15T23:26:48;41.00;;;16.43;;
60426;SDS011;46274;47.168;27.604;2023-02-15T23:32:55;36.90;;;15.50;;
60426;SDS011;46274;47.168;27.604;2023-02-15T23:39:09;42.63;;;18.30;;
60426;SDS011;46274;47.168;27.604;2023-02-15T23:45:39;36.20;;;14.13;;
60426;SDS011;46274;47.168;27.604;2023-02-15T23:51:43;37.60;;;16.33;;
60426;SDS011;46274;47.168;27.604;2023-02-15T23:58:14;40.47;;;17.57;;
